sensor_id;sensor_type;location;lat;lon;timestamp;P1;durP1;ratioP1;P2;durP2;ratioP2
19969;SDS011;10146;47.754;9.566;2024-02-21T00:01:41;10.70;;;6.97;;
19969;SDS011;10146;47.754;9.566;2024-02-21T00:04:07;9.65;;;6.38;;
19969;SDS011;10146;47.754;9.566;2024-02-21T00:06:33;13.35;;;6.88;;
19969;SDS011;10146;47.754;9.566;2024-02-21T00:08:58;6.50;;;5.55;;
19969;SDS011;10146;47.754;9.566;2024-02-21T00:11:24;9.95;;;5.78;;
19969;SDS011;10146;47.754;9.566;2024-02-21T00:13:49;13.05;;;7.07;;
19969;SDS011;10146;47.754;9.566;2024-02-21T00:16:16;9.15;;;6.43;;
19969;SDS011;10146;47.754;9.566;2024-02-21T00:18:42;7.85;;;6.55;;
19969;SDS011;10146;47.754;9.566;2024-02-21T00:21:08;9.52;;;6.25;;
19969;SDS011;10146;47.754;9.566;2024-02-21T00:23:33;8.70;;;5.90;;
19969;SDS011;10146;47.754;9.566;2024-02-21T00:25:59;8.90;;;5.55;;
19969;SDS011;10146;47.754;9.566;2024-02-21T00:28:24;9.63;;;6.38;;
19969;SDS011;10146;47.754;9.566;2024-02-21T00:30:50;8.82;;;5.43;;
19969;SDS011;10146;47.754;9.566;2024-02-21T00:33:18;9.30;;;6.07;;
19969;SDS011;10146;47.754;9.566;2024-02-21T00:35:43;8.80;;;6.25;;
19969;SDS011;10146;47.754;9.566;2024-02-21T00:38:09;9.23;;;6.25;;
19969;SDS011;10146;47.754;9.566;2024-02-21T00:40:35;9.75;;;5.85;;
19969;SDS011;10146;47.754;9.566;2024-02-21T00:43:00;9.00;;;5.50;;
19969;SDS011;10146;47.754;9.566;2024-02-21T00:45:26;7.38;;;5.72;;
19969;SDS011;10146;47.754;9.566;2024-02-21T00:47:52;8.45;;;6.05;;
19969;SDS011;10146;47.754;9.566;2024-02-21T00:50:17;8.38;;;5.47;;
19969;SDS011;10146;47.754;9.566;2024-02-21T00:52:43;10.75;;;5.85;;
19969;SDS011;10146;47.754;9.566;2024-02-21T00:55:09;9.68;;;5.57;;
19969;SDS011;10146;47.754;9.566;2024-02-21T00:57:35;6.85;;;5.43;;
19969;SDS011;10146;47.754;9.566;2024-02-21T01:00:01;8.23;;;5.28;;
19969;SDS011;10146;47.754;9.566;2024-02-21T01:02:28;7.50;;;5.85;;
19969;SDS011;10146;47.754;9.566;2024-02-21T01:04:56;7.53;;;5.63;;
19969;SDS011;10146;47.754;9.566;2024-02-21T01:07:24;6.95;;;5.72;;
19969;SDS011;10146;47.754;9.566;2024-02-21T01:09:50;5.95;;;5.40;;
19969;SDS011;10146;47.754;9.566;2024-02-21T01:12:18;7.78;;;5.97;;
19969;SDS011;10146;47.754;9.566;2024-02-21T01:14:44;8.27;;;6.18;;
19969;SDS011;10146;47.754;9.566;2024-02-21T01:17:11;8.45;;;5.78;;
19969;SDS011;10146;47.754;9.566;2024-02-21T01:19:37;9.25;;;5.22;;
19969;SDS011;10146;47.754;9.566;2024-02-21T01:22:03;5.85;;;5.25;;
19969;SDS011;10146;47.754;9.566;2024-02-21T01:24:29;5.82;;;5.20;;
19969;SDS011;10146;47.754;9.566;2024-02-21T01:26:55;7.72;;;5.43;;
19969;SDS011;10146;47.754;9.566;2024-02-21T01:29:20;10.05;;;5.97;;
19969;SDS011;10146;47.754;9.566;2024-02-21T01:31:46;7.15;;;5.53;;
19969;SDS011;10146;47.754;9.566;2024-02-21T01:34:12;6.60;;;5.35;;
19969;SDS011;10146;47.754;9.566;2024-02-21T01:36:38;7.00;;;5.05;;
19969;SDS011;10146;47.754;9.566;2024-02-21T01:39:03;8.35;;;5.15;;
19969;SDS011;10146;47.754;9.566;2024-02-21T01:41:30;6.03;;;5.13;;
19969;SDS011;10146;47.754;9.566;2024-02-21T01:43:56;8.05;;;5.60;;
19969;SDS011;10146;47.754;9.566;2024-02-21T01:46:22;6.47;;;5.32;;
19969;SDS011;10146;47.754;9.566;2024-02-21T01:48:48;6.63;;;5.93;;
19969;SDS011;10146;47.754;9.566;2024-02-21T01:51:14;6.80;;;5.60;;
19969;SDS011;10146;47.754;9.566;2024-02-21T01:53:42;7.30;;;5.55;;
19969;SDS011;10146;47.754;9.566;2024-02-21T01:56:09;6.82;;;6.13;;
19969;SDS011;10146;47.754;9.566;2024-02-21T01:58:35;7.80;;;6.07;;
19969;SDS011;10146;47.754;9.566;2024-02-21T02:01:02;9.23;;;6.28;;
19969;SDS011;10146;47.754;9.566;2024-02-21T02:03:28;8.18;;;6.03;;
19969;SDS011;10146;47.754;9.566;2024-02-21T02:05:55;7.00;;;5.45;;
19969;SDS011;10146;47.754;9.566;2024-02-21T02:08:20;7.10;;;5.13;;
19969;SDS011;10146;47.754;9.566;2024-02-21T02:10:47;6.15;;;5.28;;
19969;SDS011;10146;47.754;9.566;2024-02-21T02:13:13;8.45;;;6.30;;
19969;SDS011;10146;47.754;9.566;2024-02-21T02:18:12;7.05;;;6.35;;
19969;SDS011;10146;47.754;9.566;2024-02-21T02:20:39;7.97;;;5.75;;
19969;SDS011;10146;47.754;9.566;2024-02-21T02:23:12;9.50;;;6.03;;
19969;SDS011;10146;47.754;9.566;2024-02-21T02:25:49;6.50;;;5.70;;
19969;SDS011;10146;47.754;9.566;2024-02-21T02:28:18;6.72;;;5.30;;
19969;SDS011;10146;47.754;9.566;2024-02-21T02:30:44;6.25;;;5.32;;
19969;SDS011;10146;47.754;9.566;2024-02-21T02:33:10;6.53;;;5.25;;
19969;SDS011;10146;47.754;9.566;2024-02-21T02:35:36;8.13;;;5.40;;
19969;SDS011;10146;47.754;9.566;2024-02-21T02:38:02;5.97;;;5.00;;
19969;SDS011;10146;47.754;9.566;2024-02-21T02:40:28;7.45;;;5.20;;
19969;SDS011;10146;47.754;9.566;2024-02-21T02:42:54;7.07;;;5.22;;
19969;SDS011;10146;47.754;9.566;2024-02-21T02:45:20;8.50;;;4.53;;
19969;SDS011;10146;47.754;9.566;2024-02-21T02:47:48;7.28;;;5.63;;
19969;SDS011;10146;47.754;9.566;2024-02-21T02:50:13;8.15;;;5.10;;
19969;SDS011;10146;47.754;9.566;2024-02-21T02:52:39;7.53;;;5.50;;
19969;SDS011;10146;47.754;9.566;2024-02-21T02:55:05;7.85;;;5.45;;
19969;SDS011;10146;47.754;9.566;2024-02-21T02:57:31;7.45;;;5.90;;
19969;SDS011;10146;47.754;9.566;2024-02-21T02:59:57;6.85;;;5.47;;
19969;SDS011;10146;47.754;9.566;2024-02-21T03:02:23;5.50;;;4.60;;
19969;SDS011;10146;47.754;9.566;2024-02-21T03:04:49;5.93;;;5.28;;
19969;SDS011;10146;47.754;9.566;2024-02-21T03:07:15;6.97;;;4.85;;
19969;SDS011;10146;47.754;9.566;2024-02-21T03:09:41;5.53;;;4.75;;
19969;SDS011;10146;47.754;9.566;2024-02-21T03:12:10;5.22;;;4.20;;
19969;SDS011;10146;47.754;9.566;2024-02-21T03:14:36;4.93;;;4.22;;
19969;SDS011;10146;47.754;9.566;2024-02-21T03:17:02;5.40;;;4.13;;
19969;SDS011;10146;47.754;9.566;2024-02-21T03:19:28;4.65;;;4.25;;
19969;SDS011;10146;47.754;9.566;2024-02-21T03:21:54;6.50;;;4.43;;
19969;SDS011;10146;47.754;9.566;2024-02-21T03:24:20;5.22;;;4.25;;
19969;SDS011;10146;47.754;9.566;2024-02-21T03:26:46;6.75;;;3.90;;
19969;SDS011;10146;47.754;9.566;2024-02-21T03:29:14;5.90;;;4.07;;
19969;SDS011;10146;47.754;9.566;2024-02-21T03:31:40;5.35;;;4.53;;
19969;SDS011;10146;47.754;9.566;2024-02-21T03:34:05;6.38;;;4.13;;
19969;SDS011;10146;47.754;9.566;2024-02-21T03:36:31;6.20;;;3.60;;
19969;SDS011;10146;47.754;9.566;2024-02-21T03:38:56;4.47;;;3.70;;
19969;SDS011;10146;47.754;9.566;2024-02-21T03:41:22;3.92;;;3.28;;
19969;SDS011;10146;47.754;9.566;2024-02-21T03:43:48;4.07;;;3.30;;
19969;SDS011;10146;47.754;9.566;2024-02-21T03:46:14;4.03;;;3.63;;
19969;SDS011;10146;47.754;9.566;2024-02-21T03:48:40;3.88;;;2.90;;
19969;SDS011;10146;47.754;9.566;2024-02-21T03:51:06;4.10;;;3.40;;
19969;SDS011;10146;47.754;9.566;2024-02-21T03:53:31;4.18;;;3.47;;
19969;SDS011;10146;47.754;9.566;2024-02-21T03:55:57;4.45;;;3.30;;
19969;SDS011;10146;47.754;9.566;2024-02-21T03:58:28;3.28;;;2.83;;
19969;SDS011;10146;47.754;9.566;2024-02-21T04:00:53;4.07;;;2.95;;
19969;SDS011;10146;47.754;9.566;2024-02-21T04:03:19;4.70;;;2.97;;
19969;SDS011;10146;47.754;9.566;2024-02-21T04:05:45;3.25;;;2.47;;
19969;SDS011;10146;47.754;9.566;2024-02-21T04:08:10;3.92;;;2.72;;
19969;SDS011;10146;47.754;9.566;2024-02-21T04:10:36;3.60;;;2.97;;
19969;SDS011;10146;47.754;9.566;2024-02-21T04:13:02;5.55;;;3.00;;
19969;SDS011;10146;47.754;9.566;2024-02-21T04:15:28;2.92;;;2.72;;
19969;SDS011;10146;47.754;9.566;2024-02-21T04:17:54;3.00;;;2.60;;
19969;SDS011;10146;47.754;9.566;2024-02-21T04:20:19;3.80;;;2.80;;
19969;SDS011;10146;47.754;9.566;2024-02-21T04:22:45;3.28;;;2.60;;
19969;SDS011;10146;47.754;9.566;2024-02-21T04:25:11;4.57;;;3.83;;
19969;SDS011;10146;47.754;9.566;2024-02-21T04:27:38;5.40;;;3.65;;
19969;SDS011;10146;47.754;9.566;2024-02-21T04:30:04;8.93;;;4.50;;
19969;SDS011;10146;47.754;9.566;2024-02-21T04:32:31;4.85;;;3.95;;
19969;SDS011;10146;47.754;9.566;2024-02-21T04:34:57;4.35;;;3.55;;
19969;SDS011;10146;47.754;9.566;2024-02-21T04:37:22;3.95;;;3.55;;
19969;SDS011;10146;47.754;9.566;2024-02-21T04:39:49;5.55;;;3.10;;
19969;SDS011;10146;47.754;9.566;2024-02-21T04:42:15;3.53;;;2.50;;
19969;SDS011;10146;47.754;9.566;2024-02-21T04:44:41;3.60;;;2.38;;
19969;SDS011;10146;47.754;9.566;2024-02-21T04:47:06;2.70;;;2.25;;
19969;SDS011;10146;47.754;9.566;2024-02-21T04:49:32;4.20;;;2.35;;
19969;SDS011;10146;47.754;9.566;2024-02-21T04:51:58;4.50;;;2.60;;
19969;SDS011;10146;47.754;9.566;2024-02-21T04:54:24;2.92;;;2.50;;
19969;SDS011;10146;47.754;9.566;2024-02-21T04:56:50;3.63;;;2.50;;
19969;SDS011;10146;47.754;9.566;2024-02-21T04:59:16;2.85;;;2.42;;
19969;SDS011;10146;47.754;9.566;2024-02-21T05:01:41;3.05;;;2.58;;
19969;SDS011;10146;47.754;9.566;2024-02-21T05:04:07;4.03;;;2.60;;
19969;SDS011;10146;47.754;9.566;2024-02-21T05:06:37;3.25;;;2.50;;
19969;SDS011;10146;47.754;9.566;2024-02-21T05:09:03;3.67;;;2.55;;
19969;SDS011;10146;47.754;9.566;2024-02-21T05:11:29;3.17;;;2.40;;
19969;SDS011;10146;47.754;9.566;2024-02-21T05:13:55;3.63;;;2.53;;
19969;SDS011;10146;47.754;9.566;2024-02-21T05:16:21;3.35;;;2.60;;
19969;SDS011;10146;47.754;9.566;2024-02-21T05:18:46;3.33;;;2.67;;
19969;SDS011;10146;47.754;9.566;2024-02-21T05:21:12;3.72;;;2.67;;
19969;SDS011;10146;47.754;9.566;2024-02-21T05:23:38;3.20;;;2.90;;
19969;SDS011;10146;47.754;9.566;2024-02-21T05:26:06;5.15;;;3.55;;
19969;SDS011;10146;47.754;9.566;2024-02-21T05:28:32;6.32;;;4.25;;
19969;SDS011;10146;47.754;9.566;2024-02-21T05:30:57;7.68;;;4.43;;
19969;SDS011;10146;47.754;9.566;2024-02-21T05:33:23;7.05;;;4.00;;
19969;SDS011;10146;47.754;9.566;2024-02-21T05:35:49;5.90;;;4.55;;
19969;SDS011;10146;47.754;9.566;2024-02-21T05:38:15;4.75;;;4.07;;
19969;SDS011;10146;47.754;9.566;2024-02-21T05:40:41;5.10;;;4.43;;
19969;SDS011;10146;47.754;9.566;2024-02-21T05:43:07;4.13;;;3.70;;
19969;SDS011;10146;47.754;9.566;2024-02-21T05:45:33;3.55;;;2.47;;
19969;SDS011;10146;47.754;9.566;2024-02-21T05:47:59;4.38;;;2.67;;
19969;SDS011;10146;47.754;9.566;2024-02-21T05:50:24;3.70;;;2.70;;
19969;SDS011;10146;47.754;9.566;2024-02-21T05:52:51;2.72;;;2.45;;
19969;SDS011;10146;47.754;9.566;2024-02-21T05:55:17;3.00;;;2.28;;
19969;SDS011;10146;47.754;9.566;2024-02-21T05:57:43;3.55;;;2.20;;
19969;SDS011;10146;47.754;9.566;2024-02-21T06:00:09;4.47;;;2.80;;
19969;SDS011;10146;47.754;9.566;2024-02-21T06:02:35;3.05;;;2.60;;
19969;SDS011;10146;47.754;9.566;2024-02-21T06:05:00;2.90;;;2.70;;
19969;SDS011;10146;47.754;9.566;2024-02-21T06:07:26;4.18;;;2.70;;
19969;SDS011;10146;47.754;9.566;2024-02-21T06:09:52;4.20;;;2.95;;
19969;SDS011;10146;47.754;9.566;2024-02-21T06:12:18;3.13;;;2.58;;
19969;SDS011;10146;47.754;9.566;2024-02-21T06:14:43;3.10;;;2.65;;
19969;SDS011;10146;47.754;9.566;2024-02-21T06:17:09;3.83;;;2.80;;
19969;SDS011;10146;47.754;9.566;2024-02-21T06:19:35;3.95;;;2.60;;
19969;SDS011;10146;47.754;9.566;2024-02-21T06:22:01;3.33;;;2.50;;
19969;SDS011;10146;47.754;9.566;2024-02-21T06:24:26;3.15;;;2.45;;
19969;SDS011;10146;47.754;9.566;2024-02-21T06:26:52;4.18;;;2.65;;
19969;SDS011;10146;47.754;9.566;2024-02-21T06:29:17;2.85;;;2.60;;
19969;SDS011;10146;47.754;9.566;2024-02-21T06:31:43;3.08;;;2.42;;
19969;SDS011;10146;47.754;9.566;2024-02-21T06:34:09;2.38;;;2.15;;
19969;SDS011;10146;47.754;9.566;2024-02-21T06:36:34;2.67;;;2.42;;
19969;SDS011;10146;47.754;9.566;2024-02-21T06:39:00;2.97;;;2.42;;
19969;SDS011;10146;47.754;9.566;2024-02-21T06:41:25;3.70;;;2.80;;
19969;SDS011;10146;47.754;9.566;2024-02-21T06:43:51;3.35;;;2.40;;
19969;SDS011;10146;47.754;9.566;2024-02-21T06:46:26;2.30;;;2.10;;
19969;SDS011;10146;47.754;9.566;2024-02-21T06:48:57;2.85;;;2.50;;
19969;SDS011;10146;47.754;9.566;2024-02-21T06:51:23;3.30;;;2.58;;
19969;SDS011;10146;47.754;9.566;2024-02-21T06:53:50;2.75;;;2.20;;
19969;SDS011;10146;47.754;9.566;2024-02-21T06:56:15;3.38;;;2.40;;
19969;SDS011;10146;47.754;9.566;2024-02-21T06:58:41;3.03;;;2.28;;
19969;SDS011;10146;47.754;9.566;2024-02-21T07:01:09;3.42;;;1.65;;
19969;SDS011;10146;47.754;9.566;2024-02-21T07:03:35;2.88;;;1.90;;
19969;SDS011;10146;47.754;9.566;2024-02-21T07:06:01;1.70;;;1.60;;
19969;SDS011;10146;47.754;9.566;2024-02-21T07:08:27;3.05;;;2.20;;
19969;SDS011;10146;47.754;9.566;2024-02-21T07:10:53;1.65;;;1.48;;
19969;SDS011;10146;47.754;9.566;2024-02-21T07:13:19;2.03;;;1.70;;
19969;SDS011;10146;47.754;9.566;2024-02-21T07:15:45;2.40;;;1.50;;
19969;SDS011;10146;47.754;9.566;2024-02-21T07:18:11;1.80;;;1.60;;
19969;SDS011;10146;47.754;9.566;2024-02-21T07:20:36;1.70;;;1.45;;
19969;SDS011;10146;47.754;9.566;2024-02-21T07:23:02;1.67;;;1.50;;
19969;SDS011;10146;47.754;9.566;2024-02-21T07:25:28;2.15;;;1.58;;
19969;SDS011;10146;47.754;9.566;2024-02-21T07:27:54;2.65;;;1.50;;
19969;SDS011;10146;47.754;9.566;2024-02-21T07:30:19;2.72;;;1.63;;
19969;SDS011;10146;47.754;9.566;2024-02-21T07:32:45;4.03;;;1.70;;
19969;SDS011;10146;47.754;9.566;2024-02-21T07:35:13;3.45;;;1.60;;
19969;SDS011;10146;47.754;9.566;2024-02-21T07:37:39;2.25;;;1.35;;
19969;SDS011;10146;47.754;9.566;2024-02-21T07:40:12;2.80;;;1.35;;
19969;SDS011;10146;47.754;9.566;2024-02-21T07:42:39;2.42;;;1.77;;
19969;SDS011;10146;47.754;9.566;2024-02-21T07:45:06;2.33;;;1.98;;
19969;SDS011;10146;47.754;9.566;2024-02-21T07:47:35;5.22;;;3.55;;
19969;SDS011;10146;47.754;9.566;2024-02-21T07:50:01;3.33;;;3.03;;
19969;SDS011;10146;47.754;9.566;2024-02-21T07:52:27;3.33;;;2.60;;
19969;SDS011;10146;47.754;9.566;2024-02-21T07:54:53;2.90;;;2.55;;
19969;SDS011;10146;47.754;9.566;2024-02-21T07:57:19;4.15;;;3.20;;
19969;SDS011;10146;47.754;9.566;2024-02-21T07:59:44;2.58;;;2.38;;
19969;SDS011;10146;47.754;9.566;2024-02-21T08:02:12;2.88;;;2.00;;
19969;SDS011;10146;47.754;9.566;2024-02-21T08:04:41;2.20;;;1.90;;
19969;SDS011;10146;47.754;9.566;2024-02-21T08:07:06;3.17;;;2.00;;
19969;SDS011;10146;47.754;9.566;2024-02-21T08:09:32;3.13;;;2.00;;
19969;SDS011;10146;47.754;9.566;2024-02-21T08:11:58;3.08;;;1.50;;
19969;SDS011;10146;47.754;9.566;2024-02-21T08:14:23;2.33;;;1.25;;
19969;SDS011;10146;47.754;9.566;2024-02-21T08:16:50;2.75;;;1.45;;
19969;SDS011;10146;47.754;9.566;2024-02-21T08:19:18;1.63;;;1.30;;
19969;SDS011;10146;47.754;9.566;2024-02-21T08:21:44;1.50;;;1.25;;
19969;SDS011;10146;47.754;9.566;2024-02-21T08:24:12;1.80;;;1.15;;
19969;SDS011;10146;47.754;9.566;2024-02-21T08:26:40;2.17;;;1.30;;
19969;SDS011;10146;47.754;9.566;2024-02-21T08:29:06;1.42;;;1.23;;
19969;SDS011;10146;47.754;9.566;2024-02-21T08:31:31;2.17;;;1.30;;
19969;SDS011;10146;47.754;9.566;2024-02-21T08:34:00;2.20;;;1.70;;
19969;SDS011;10146;47.754;9.566;2024-02-21T08:36:29;4.65;;;1.60;;
19969;SDS011;10146;47.754;9.566;2024-02-21T08:38:56;2.40;;;1.45;;
19969;SDS011;10146;47.754;9.566;2024-02-21T08:41:22;2.22;;;1.35;;
19969;SDS011;10146;47.754;9.566;2024-02-21T08:43:53;3.75;;;1.70;;
19969;SDS011;10146;47.754;9.566;2024-02-21T08:46:20;2.17;;;1.60;;
19969;SDS011;10146;47.754;9.566;2024-02-21T08:48:46;3.78;;;1.60;;
19969;SDS011;10146;47.754;9.566;2024-02-21T08:51:12;2.13;;;1.52;;
19969;SDS011;10146;47.754;9.566;2024-02-21T08:53:38;3.38;;;1.70;;
19969;SDS011;10146;47.754;9.566;2024-02-21T08:56:03;3.58;;;1.88;;
19969;SDS011;10146;47.754;9.566;2024-02-21T08:58:30;2.47;;;1.65;;
19969;SDS011;10146;47.754;9.566;2024-02-21T09:00:55;1.88;;;1.55;;
19969;SDS011;10146;47.754;9.566;2024-02-21T09:03:23;2.40;;;1.98;;
19969;SDS011;10146;47.754;9.566;2024-02-21T09:05:50;3.97;;;2.30;;
19969;SDS011;10146;47.754;9.566;2024-02-21T09:08:15;3.72;;;2.53;;
19969;SDS011;10146;47.754;9.566;2024-02-21T09:10:41;2.67;;;1.95;;
19969;SDS011;10146;47.754;9.566;2024-02-21T09:13:07;3.63;;;2.35;;
19969;SDS011;10146;47.754;9.566;2024-02-21T09:15:33;3.30;;;2.40;;
19969;SDS011;10146;47.754;9.566;2024-02-21T09:17:59;2.90;;;2.05;;
19969;SDS011;10146;47.754;9.566;2024-02-21T09:20:25;3.78;;;2.58;;
19969;SDS011;10146;47.754;9.566;2024-02-21T09:22:50;2.80;;;2.00;;
19969;SDS011;10146;47.754;9.566;2024-02-21T09:25:17;2.78;;;1.80;;
19969;SDS011;10146;47.754;9.566;2024-02-21T09:27:43;2.83;;;2.38;;
19969;SDS011;10146;47.754;9.566;2024-02-21T09:30:10;2.50;;;2.28;;
19969;SDS011;10146;47.754;9.566;2024-02-21T09:32:36;3.80;;;2.33;;
19969;SDS011;10146;47.754;9.566;2024-02-21T09:35:02;3.47;;;2.10;;
19969;SDS011;10146;47.754;9.566;2024-02-21T09:37:28;2.70;;;2.08;;
19969;SDS011;10146;47.754;9.566;2024-02-21T09:39:53;2.80;;;1.88;;
19969;SDS011;10146;47.754;9.566;2024-02-21T09:42:20;4.75;;;2.13;;
19969;SDS011;10146;47.754;9.566;2024-02-21T09:44:46;2.60;;;1.85;;
19969;SDS011;10146;47.754;9.566;2024-02-21T09:47:17;2.75;;;2.03;;
19969;SDS011;10146;47.754;9.566;2024-02-21T09:49:47;4.63;;;2.13;;
19969;SDS011;10146;47.754;9.566;2024-02-21T09:52:13;2.90;;;2.22;;
19969;SDS011;10146;47.754;9.566;2024-02-21T09:54:40;2.33;;;1.90;;
19969;SDS011;10146;47.754;9.566;2024-02-21T09:57:09;2.35;;;2.00;;
19969;SDS011;10146;47.754;9.566;2024-02-21T09:59:35;3.38;;;2.00;;
19969;SDS011;10146;47.754;9.566;2024-02-21T10:02:00;2.83;;;1.88;;
19969;SDS011;10146;47.754;9.566;2024-02-21T10:04:26;4.70;;;2.20;;
19969;SDS011;10146;47.754;9.566;2024-02-21T10:06:56;3.20;;;2.00;;
19969;SDS011;10146;47.754;9.566;2024-02-21T10:09:25;3.38;;;1.80;;
19969;SDS011;10146;47.754;9.566;2024-02-21T10:12:15;3.47;;;2.17;;
19969;SDS011;10146;47.754;9.566;2024-02-21T10:14:43;2.83;;;2.08;;
19969;SDS011;10146;47.754;9.566;2024-02-21T10:17:14;2.30;;;2.10;;
19969;SDS011;10146;47.754;9.566;2024-02-21T10:19:45;3.10;;;2.13;;
19969;SDS011;10146;47.754;9.566;2024-02-21T10:22:12;3.15;;;2.50;;
19969;SDS011;10146;47.754;9.566;2024-02-21T10:24:40;2.97;;;2.00;;
19969;SDS011;10146;47.754;9.566;2024-02-21T10:27:09;3.42;;;2.45;;
19969;SDS011;10146;47.754;9.566;2024-02-21T10:29:36;4.72;;;2.10;;
19969;SDS011;10146;47.754;9.566;2024-02-21T10:34:35;2.60;;;1.90;;
19969;SDS011;10146;47.754;9.566;2024-02-21T10:37:04;3.33;;;2.00;;
19969;SDS011;10146;47.754;9.566;2024-02-21T10:39:35;3.25;;;1.80;;
19969;SDS011;10146;47.754;9.566;2024-02-21T10:42:02;2.92;;;1.95;;
19969;SDS011;10146;47.754;9.566;2024-02-21T10:44:29;3.17;;;1.90;;
19969;SDS011;10146;47.754;9.566;2024-02-21T10:46:56;5.00;;;1.90;;
19969;SDS011;10146;47.754;9.566;2024-02-21T10:49:23;2.75;;;2.10;;
19969;SDS011;10146;47.754;9.566;2024-02-21T10:57:21;3.60;;;1.98;;
19969;SDS011;10146;47.754;9.566;2024-02-21T10:59:48;3.53;;;2.15;;
19969;SDS011;10146;47.754;9.566;2024-02-21T11:02:15;2.35;;;1.63;;
19969;SDS011;10146;47.754;9.566;2024-02-21T11:04:41;3.35;;;1.60;;
19969;SDS011;10146;47.754;9.566;2024-02-21T11:07:08;3.50;;;1.92;;
19969;SDS011;10146;47.754;9.566;2024-02-21T11:09:34;1.85;;;1.40;;
19969;SDS011;10146;47.754;9.566;2024-02-21T11:12:03;3.70;;;2.15;;
19969;SDS011;10146;47.754;9.566;2024-02-21T11:14:31;3.90;;;1.80;;
19969;SDS011;10146;47.754;9.566;2024-02-21T11:17:14;2.25;;;2.03;;
19969;SDS011;10146;47.754;9.566;2024-02-21T11:19:43;2.10;;;1.52;;
19969;SDS011;10146;47.754;9.566;2024-02-21T11:22:16;2.95;;;1.73;;
19969;SDS011;10146;47.754;9.566;2024-02-21T11:24:43;3.08;;;1.60;;
19969;SDS011;10146;47.754;9.566;2024-02-21T11:29:40;2.25;;;1.40;;
19969;SDS011;10146;47.754;9.566;2024-02-21T11:32:08;3.17;;;1.50;;
19969;SDS011;10146;47.754;9.566;2024-02-21T11:34:36;1.90;;;1.58;;
19969;SDS011;10146;47.754;9.566;2024-02-21T11:37:02;3.03;;;1.75;;
19969;SDS011;10146;47.754;9.566;2024-02-21T11:39:40;1.70;;;1.60;;
19969;SDS011;10146;47.754;9.566;2024-02-21T11:42:07;2.95;;;1.33;;
19969;SDS011;10146;47.754;9.566;2024-02-21T11:44:34;1.67;;;1.33;;
19969;SDS011;10146;47.754;9.566;2024-02-21T11:47:05;2.40;;;1.40;;
19969;SDS011;10146;47.754;9.566;2024-02-21T11:49:36;2.28;;;1.30;;
19969;SDS011;10146;47.754;9.566;2024-02-21T11:52:09;1.85;;;1.10;;
19969;SDS011;10146;47.754;9.566;2024-02-21T11:54:35;2.95;;;1.48;;
19969;SDS011;10146;47.754;9.566;2024-02-21T11:57:01;2.70;;;1.42;;
19969;SDS011;10146;47.754;9.566;2024-02-21T11:59:32;2.25;;;1.45;;
19969;SDS011;10146;47.754;9.566;2024-02-21T12:02:01;1.42;;;1.20;;
19969;SDS011;10146;47.754;9.566;2024-02-21T12:04:28;2.75;;;1.20;;
19969;SDS011;10146;47.754;9.566;2024-02-21T12:06:56;3.90;;;1.42;;
19969;SDS011;10146;47.754;9.566;2024-02-21T12:09:24;2.08;;;1.30;;
19969;SDS011;10146;47.754;9.566;2024-02-21T12:12:00;3.28;;;1.60;;
19969;SDS011;10146;47.754;9.566;2024-02-21T12:14:28;2.38;;;1.60;;
19969;SDS011;10146;47.754;9.566;2024-02-21T12:16:55;3.50;;;1.80;;
19969;SDS011;10146;47.754;9.566;2024-02-21T12:19:21;3.65;;;2.08;;
19969;SDS011;10146;47.754;9.566;2024-02-21T12:21:48;2.58;;;2.00;;
19969;SDS011;10146;47.754;9.566;2024-02-21T12:24:20;3.92;;;2.58;;
19969;SDS011;10146;47.754;9.566;2024-02-21T12:26:50;4.13;;;2.00;;
19969;SDS011;10146;47.754;9.566;2024-02-21T12:29:17;3.03;;;2.20;;
19969;SDS011;10146;47.754;9.566;2024-02-21T12:31:44;3.45;;;2.40;;
19969;SDS011;10146;47.754;9.566;2024-02-21T12:34:10;4.97;;;2.20;;
19969;SDS011;10146;47.754;9.566;2024-02-21T12:36:36;2.80;;;2.00;;
19969;SDS011;10146;47.754;9.566;2024-02-21T12:39:13;3.28;;;2.20;;
19969;SDS011;10146;47.754;9.566;2024-02-21T12:41:39;3.03;;;1.90;;
19969;SDS011;10146;47.754;9.566;2024-02-21T12:44:06;2.28;;;1.90;;
19969;SDS011;10146;47.754;9.566;2024-02-21T12:46:35;2.40;;;2.17;;
19969;SDS011;10146;47.754;9.566;2024-02-21T12:49:04;2.88;;;2.30;;
19969;SDS011;10146;47.754;9.566;2024-02-21T12:51:30;3.40;;;2.20;;
19969;SDS011;10146;47.754;9.566;2024-02-21T12:53:56;2.97;;;2.10;;
19969;SDS011;10146;47.754;9.566;2024-02-21T12:56:22;3.08;;;2.10;;
19969;SDS011;10146;47.754;9.566;2024-02-21T12:58:49;2.45;;;1.92;;
19969;SDS011;10146;47.754;9.566;2024-02-21T13:01:15;2.70;;;2.20;;
19969;SDS011;10146;47.754;9.566;2024-02-21T13:03:41;3.13;;;2.10;;
19969;SDS011;10146;47.754;9.566;2024-02-21T13:06:06;2.55;;;1.90;;
19969;SDS011;10146;47.754;9.566;2024-02-21T13:08:35;2.70;;;1.75;;
19969;SDS011;10146;47.754;9.566;2024-02-21T13:11:01;2.38;;;2.03;;
19969;SDS011;10146;47.754;9.566;2024-02-21T13:13:30;1.70;;;1.60;;
19969;SDS011;10146;47.754;9.566;2024-02-21T13:15:59;1.60;;;1.48;;
19969;SDS011;10146;47.754;9.566;2024-02-21T13:18:24;3.72;;;1.40;;
19969;SDS011;10146;47.754;9.566;2024-02-21T13:20:50;2.67;;;1.30;;
19969;SDS011;10146;47.754;9.566;2024-02-21T13:23:16;1.95;;;1.20;;
19969;SDS011;10146;47.754;9.566;2024-02-21T13:25:42;2.83;;;1.20;;
19969;SDS011;10146;47.754;9.566;2024-02-21T13:28:09;2.50;;;1.40;;
19969;SDS011;10146;47.754;9.566;2024-02-21T13:30:35;3.20;;;1.58;;
19969;SDS011;10146;47.754;9.566;2024-02-21T13:33:00;2.83;;;1.40;;
19969;SDS011;10146;47.754;9.566;2024-02-21T13:35:28;3.28;;;1.45;;
19969;SDS011;10146;47.754;9.566;2024-02-21T13:37:53;3.08;;;1.70;;
19969;SDS011;10146;47.754;9.566;2024-02-21T13:40:19;2.08;;;1.38;;
19969;SDS011;10146;47.754;9.566;2024-02-21T13:42:44;1.88;;;1.30;;
19969;SDS011;10146;47.754;9.566;2024-02-21T13:45:10;2.97;;;1.70;;
19969;SDS011;10146;47.754;9.566;2024-02-21T13:47:36;4.93;;;2.15;;
19969;SDS011;10146;47.754;9.566;2024-02-21T13:50:02;3.05;;;1.50;;
19969;SDS011;10146;47.754;9.566;2024-02-21T13:52:29;2.92;;;1.73;;
19969;SDS011;10146;47.754;9.566;2024-02-21T13:54:55;2.03;;;1.40;;
19969;SDS011;10146;47.754;9.566;2024-02-21T13:57:21;1.83;;;1.45;;
19969;SDS011;10146;47.754;9.566;2024-02-21T13:59:47;2.25;;;1.45;;
19969;SDS011;10146;47.754;9.566;2024-02-21T14:02:12;3.13;;;1.75;;
19969;SDS011;10146;47.754;9.566;2024-02-21T14:04:38;2.92;;;2.00;;
19969;SDS011;10146;47.754;9.566;2024-02-21T14:07:04;3.15;;;1.90;;
19969;SDS011;10146;47.754;9.566;2024-02-21T14:09:30;3.05;;;2.22;;
19969;SDS011;10146;47.754;9.566;2024-02-21T14:11:55;4.05;;;1.92;;
19969;SDS011;10146;47.754;9.566;2024-02-21T14:14:21;4.53;;;1.98;;
19969;SDS011;10146;47.754;9.566;2024-02-21T14:16:47;4.35;;;2.38;;
19969;SDS011;10146;47.754;9.566;2024-02-21T14:19:15;3.03;;;1.60;;
19969;SDS011;10146;47.754;9.566;2024-02-21T14:21:42;3.08;;;1.75;;
19969;SDS011;10146;47.754;9.566;2024-02-21T14:24:07;3.58;;;1.92;;
19969;SDS011;10146;47.754;9.566;2024-02-21T14:26:33;3.30;;;2.45;;
19969;SDS011;10146;47.754;9.566;2024-02-21T14:29:00;3.03;;;1.77;;
19969;SDS011;10146;47.754;9.566;2024-02-21T14:31:28;3.17;;;2.00;;
19969;SDS011;10146;47.754;9.566;2024-02-21T14:33:56;2.63;;;2.10;;
19969;SDS011;10146;47.754;9.566;2024-02-21T14:36:22;3.97;;;2.00;;
19969;SDS011;10146;47.754;9.566;2024-02-21T14:38:48;3.80;;;2.20;;
19969;SDS011;10146;47.754;9.566;2024-02-21T14:41:14;2.22;;;1.95;;
19969;SDS011;10146;47.754;9.566;2024-02-21T14:43:40;3.00;;;1.90;;
19969;SDS011;10146;47.754;9.566;2024-02-21T14:46:05;2.42;;;2.05;;
19969;SDS011;10146;47.754;9.566;2024-02-21T14:48:31;3.40;;;1.98;;
19969;SDS011;10146;47.754;9.566;2024-02-21T14:50:57;3.50;;;2.20;;
19969;SDS011;10146;47.754;9.566;2024-02-21T14:53:24;3.08;;;2.33;;
19969;SDS011;10146;47.754;9.566;2024-02-21T14:55:50;4.47;;;2.30;;
19969;SDS011;10146;47.754;9.566;2024-02-21T14:58:16;3.95;;;3.50;;